sensor_id;sensor_type;location;lat;lon;timestamp;P1;durP1;ratioP1;P2;durP2;ratioP2
815;SDS011;25928;51.062;13.752;2022-10-16T00:00:30;17.80;;;15.70;;
815;SDS011;25928;51.062;13.752;2022-10-16T00:02:56;19.27;;;17.17;;
815;SDS011;25928;51.062;13.752;2022-10-16T00:05:22;19.90;;;17.10;;
815;SDS011;25928;51.062;13.752;2022-10-16T00:07:47;19.70;;;15.70;;
815;SDS011;25928;51.062;13.752;2022-10-16T00:10:13;18.40;;;16.37;;
815;SDS011;25928;51.062;13.752;2022-10-16T00:12:38;19.27;;;15.30;;
815;SDS011;25928;51.062;13.752;2022-10-16T00:15:04;19.80;;;15.40;;
815;SDS011;25928;51.062;13.752;2022-10-16T00:17:30;17.83;;;14.87;;
815;SDS011;25928;51.062;13.752;2022-10-16T00:19:57;16.37;;;14.63;;
815;SDS011;25928;51.062;13.752;2022-10-16T00:22:22;18.50;;;16.60;;
815;SDS011;25928;51.062;13.752;2022-10-16T00:24:48;17.27;;;15.40;;
815;SDS011;25928;51.062;13.752;2022-10-16T00:27:14;18.87;;;16.30;;
815;SDS011;25928;51.062;13.752;2022-10-16T00:29:40;20.13;;;18.03;;
815;SDS011;25928;51.062;13.752;2022-10-16T00:32:05;17.50;;;15.60;;
815;SDS011;25928;51.062;13.752;2022-10-16T00:34:31;20.57;;;17.03;;
815;SDS011;25928;51.062;13.752;2022-10-16T00:36:57;20.40;;;17.70;;
815;SDS011;25928;51.062;13.752;2022-10-16T00:39:22;19.20;;;16.23;;
815;SDS011;25928;51.062;13.752;2022-10-16T00:41:48;17.77;;;15.93;;
815;SDS011;25928;51.062;13.752;2022-10-16T00:47:11;18.00;;;15.60;;
815;SDS011;25928;51.062;13.752;2022-10-16T00:49:40;16.03;;;14.43;;
815;SDS011;25928;51.062;13.752;2022-10-16T00:52:06;17.60;;;15.80;;
815;SDS011;25928;51.062;13.752;2022-10-16T00:54:32;16.87;;;15.10;;
815;SDS011;25928;51.062;13.752;2022-10-16T00:57:01;17.10;;;15.13;;
815;SDS011;25928;51.062;13.752;2022-10-16T00:59:36;17.40;;;14.83;;
815;SDS011;25928;51.062;13.752;2022-10-16T01:02:05;15.23;;;13.63;;
815;SDS011;25928;51.062;13.752;2022-10-16T01:04:43;17.00;;;14.83;;
815;SDS011;25928;51.062;13.752;2022-10-16T01:10:17;16.27;;;14.50;;
815;SDS011;25928;51.062;13.752;2022-10-16T01:12:51;15.87;;;14.37;;
815;SDS011;25928;51.062;13.752;2022-10-16T01:18:14;16.73;;;14.87;;
815;SDS011;25928;51.062;13.752;2022-10-16T01:20:59;15.77;;;13.77;;
815;SDS011;25928;51.062;13.752;2022-10-16T01:23:48;15.67;;;14.00;;
815;SDS011;25928;51.062;13.752;2022-10-16T01:29:14;15.60;;;13.73;;
815;SDS011;25928;51.062;13.752;2022-10-16T01:31:47;14.90;;;13.27;;
815;SDS011;25928;51.062;13.752;2022-10-16T01:34:20;15.60;;;13.93;;
815;SDS011;25928;51.062;13.752;2022-10-16T01:36:55;14.47;;;13.10;;
815;SDS011;25928;51.062;13.752;2022-10-16T01:39:28;15.17;;;13.60;;
815;SDS011;25928;51.062;13.752;2022-10-16T01:42:08;16.47;;;13.63;;
815;SDS011;25928;51.062;13.752;2022-10-16T01:44:37;15.90;;;14.17;;
815;SDS011;25928;51.062;13.752;2022-10-16T01:47:04;15.20;;;13.70;;
815;SDS011;25928;51.062;13.752;2022-10-16T01:49:32;17.33;;;13.00;;
815;SDS011;25928;51.062;13.752;2022-10-16T01:52:00;15.87;;;14.30;;
815;SDS011;25928;51.062;13.752;2022-10-16T01:54:30;15.60;;;13.33;;
815;SDS011;25928;51.062;13.752;2022-10-16T01:56:57;15.50;;;14.00;;
815;SDS011;25928;51.062;13.752;2022-10-16T01:59:25;14.97;;;13.57;;
815;SDS011;25928;51.062;13.752;2022-10-16T02:01:54;16.17;;;14.37;;
815;SDS011;25928;51.062;13.752;2022-10-16T02:04:29;15.77;;;14.27;;
815;SDS011;25928;51.062;13.752;2022-10-16T02:06:59;15.83;;;14.23;;
815;SDS011;25928;51.062;13.752;2022-10-16T02:09:25;16.10;;;13.43;;
815;SDS011;25928;51.062;13.752;2022-10-16T02:11:54;16.80;;;14.37;;
815;SDS011;25928;51.062;13.752;2022-10-16T02:14:24;15.63;;;14.10;;
815;SDS011;25928;51.062;13.752;2022-10-16T02:16:50;16.37;;;14.70;;
815;SDS011;25928;51.062;13.752;2022-10-16T02:19:16;17.30;;;15.50;;
815;SDS011;25928;51.062;13.752;2022-10-16T02:21:54;19.10;;;17.10;;
815;SDS011;25928;51.062;13.752;2022-10-16T02:24:44;18.30;;;16.30;;
815;SDS011;25928;51.062;13.752;2022-10-16T02:27:31;17.20;;;15.43;;
815;SDS011;25928;51.062;13.752;2022-10-16T02:30:08;17.57;;;15.77;;
815;SDS011;25928;51.062;13.752;2022-10-16T02:32:55;17.90;;;16.00;;
815;SDS011;25928;51.062;13.752;2022-10-16T02:35:22;16.93;;;15.23;;
815;SDS011;25928;51.062;13.752;2022-10-16T02:37:49;16.90;;;15.00;;
815;SDS011;25928;51.062;13.752;2022-10-16T02:40:16;17.40;;;15.60;;
815;SDS011;25928;51.062;13.752;2022-10-16T02:42:42;18.20;;;16.23;;
815;SDS011;25928;51.062;13.752;2022-10-16T02:45:08;20.90;;;16.33;;
815;SDS011;25928;51.062;13.752;2022-10-16T02:47:35;17.73;;;15.93;;
815;SDS011;25928;51.062;13.752;2022-10-16T02:50:01;18.07;;;14.67;;
815;SDS011;25928;51.062;13.752;2022-10-16T02:52:26;17.60;;;15.73;;
815;SDS011;25928;51.062;13.752;2022-10-16T02:54:52;16.73;;;15.13;;
815;SDS011;25928;51.062;13.752;2022-10-16T02:57:18;17.23;;;15.43;;
815;SDS011;25928;51.062;13.752;2022-10-16T02:59:44;16.87;;;15.17;;
815;SDS011;25928;51.062;13.752;2022-10-16T03:02:10;17.37;;;15.70;;
815;SDS011;25928;51.062;13.752;2022-10-16T03:04:36;16.93;;;15.27;;
815;SDS011;25928;51.062;13.752;2022-10-16T03:07:02;15.93;;;14.33;;
815;SDS011;25928;51.062;13.752;2022-10-16T03:09:28;17.20;;;15.40;;
815;SDS011;25928;51.062;13.752;2022-10-16T03:11:53;16.33;;;14.73;;
815;SDS011;25928;51.062;13.752;2022-10-16T03:14:19;16.37;;;14.87;;
815;SDS011;25928;51.062;13.752;2022-10-16T03:16:44;17.33;;;15.63;;
815;SDS011;25928;51.062;13.752;2022-10-16T03:19:10;18.43;;;14.70;;
815;SDS011;25928;51.062;13.752;2022-10-16T03:21:36;16.63;;;14.13;;
815;SDS011;25928;51.062;13.752;2022-10-16T03:24:01;17.80;;;16.00;;
815;SDS011;25928;51.062;13.752;2022-10-16T03:26:27;16.57;;;14.97;;
815;SDS011;25928;51.062;13.752;2022-10-16T03:28:52;17.03;;;15.43;;
815;SDS011;25928;51.062;13.752;2022-10-16T03:31:18;17.97;;;16.17;;
815;SDS011;25928;51.062;13.752;2022-10-16T03:33:44;16.17;;;14.60;;
815;SDS011;25928;51.062;13.752;2022-10-16T03:36:09;16.27;;;14.60;;
815;SDS011;25928;51.062;13.752;2022-10-16T03:38:35;17.47;;;15.77;;
815;SDS011;25928;51.062;13.752;2022-10-16T03:41:00;17.10;;;15.30;;
815;SDS011;25928;51.062;13.752;2022-10-16T03:43:26;17.10;;;15.40;;
815;SDS011;25928;51.062;13.752;2022-10-16T03:45:51;16.27;;;14.60;;
815;SDS011;25928;51.062;13.752;2022-10-16T03:48:17;16.00;;;14.40;;
815;SDS011;25928;51.062;13.752;2022-10-16T03:50:43;15.93;;;14.23;;
815;SDS011;25928;51.062;13.752;2022-10-16T03:53:09;16.90;;;15.20;;
815;SDS011;25928;51.062;13.752;2022-10-16T03:55:35;17.37;;;15.40;;
815;SDS011;25928;51.062;13.752;2022-10-16T03:58:01;17.97;;;16.17;;
815;SDS011;25928;51.062;13.752;2022-10-16T04:00:26;17.00;;;15.20;;
815;SDS011;25928;51.062;13.752;2022-10-16T04:02:52;17.13;;;15.33;;
815;SDS011;25928;51.062;13.752;2022-10-16T04:05:18;16.30;;;14.73;;
815;SDS011;25928;51.062;13.752;2022-10-16T04:07:43;18.67;;;16.60;;
815;SDS011;25928;51.062;13.752;2022-10-16T04:10:09;16.60;;;15.00;;
815;SDS011;25928;51.062;13.752;2022-10-16T04:12:35;16.57;;;14.97;;
815;SDS011;25928;51.062;13.752;2022-10-16T04:15:00;17.30;;;15.60;;
815;SDS011;25928;51.062;13.752;2022-10-16T04:17:27;19.57;;;17.57;;
815;SDS011;25928;51.062;13.752;2022-10-16T04:19:52;18.37;;;16.23;;
815;SDS011;25928;51.062;13.752;2022-10-16T04:22:18;18.37;;;16.47;;
815;SDS011;25928;51.062;13.752;2022-10-16T04:24:43;22.20;;;16.80;;
815;SDS011;25928;51.062;13.752;2022-10-16T04:27:09;18.93;;;16.83;;
815;SDS011;25928;51.062;13.752;2022-10-16T04:29:34;19.67;;;17.70;;
815;SDS011;25928;51.062;13.752;2022-10-16T04:32:00;18.03;;;16.23;;
815;SDS011;25928;51.062;13.752;2022-10-16T04:34:25;18.23;;;16.43;;
815;SDS011;25928;51.062;13.752;2022-10-16T04:36:51;18.00;;;16.10;;
815;SDS011;25928;51.062;13.752;2022-10-16T04:39:17;18.73;;;16.93;;
815;SDS011;25928;51.062;13.752;2022-10-16T04:41:43;17.50;;;15.80;;
815;SDS011;25928;51.062;13.752;2022-10-16T04:44:08;17.73;;;15.90;;
815;SDS011;25928;51.062;13.752;2022-10-16T04:46:34;17.10;;;15.43;;
815;SDS011;25928;51.062;13.752;2022-10-16T04:48:59;17.20;;;15.40;;
815;SDS011;25928;51.062;13.752;2022-10-16T04:51:25;17.17;;;15.33;;
815;SDS011;25928;51.062;13.752;2022-10-16T04:53:52;22.70;;;16.20;;
815;SDS011;25928;51.062;13.752;2022-10-16T04:56:18;18.73;;;16.70;;
815;SDS011;25928;51.062;13.752;2022-10-16T04:58:43;19.10;;;17.10;;
815;SDS011;25928;51.062;13.752;2022-10-16T05:01:09;18.00;;;16.20;;
815;SDS011;25928;51.062;13.752;2022-10-16T05:03:34;17.30;;;15.63;;
815;SDS011;25928;51.062;13.752;2022-10-16T05:06:00;18.30;;;16.00;;
815;SDS011;25928;51.062;13.752;2022-10-16T05:08:26;18.77;;;16.93;;
815;SDS011;25928;51.062;13.752;2022-10-16T05:10:51;17.97;;;16.17;;
815;SDS011;25928;51.062;13.752;2022-10-16T05:13:17;19.43;;;17.17;;
815;SDS011;25928;51.062;13.752;2022-10-16T05:15:46;17.83;;;16.03;;
815;SDS011;25928;51.062;13.752;2022-10-16T05:18:13;17.33;;;15.70;;
815;SDS011;25928;51.062;13.752;2022-10-16T05:20:38;17.40;;;15.60;;
815;SDS011;25928;51.062;13.752;2022-10-16T05:23:04;17.40;;;15.70;;
815;SDS011;25928;51.062;13.752;2022-10-16T05:25:29;16.13;;;14.63;;
815;SDS011;25928;51.062;13.752;2022-10-16T05:27:55;16.70;;;15.00;;
815;SDS011;25928;51.062;13.752;2022-10-16T05:30:21;16.07;;;14.47;;
815;SDS011;25928;51.062;13.752;2022-10-16T05:32:47;17.03;;;15.30;;
815;SDS011;25928;51.062;13.752;2022-10-16T05:35:14;18.50;;;16.20;;
815;SDS011;25928;51.062;13.752;2022-10-16T05:37:40;17.37;;;15.63;;
815;SDS011;25928;51.062;13.752;2022-10-16T05:40:05;16.50;;;14.83;;
815;SDS011;25928;51.062;13.752;2022-10-16T05:42:31;14.77;;;13.40;;
815;SDS011;25928;51.062;13.752;2022-10-16T05:44:57;17.00;;;15.40;;
815;SDS011;25928;51.062;13.752;2022-10-16T05:47:22;16.50;;;14.90;;
815;SDS011;25928;51.062;13.752;2022-10-16T05:49:48;18.10;;;15.30;;
815;SDS011;25928;51.062;13.752;2022-10-16T05:52:13;16.80;;;15.20;;
815;SDS011;25928;51.062;13.752;2022-10-16T05:54:39;16.57;;;14.87;;
815;SDS011;25928;51.062;13.752;2022-10-16T05:57:05;15.33;;;13.77;;
815;SDS011;25928;51.062;13.752;2022-10-16T05:59:30;16.87;;;15.27;;
815;SDS011;25928;51.062;13.752;2022-10-16T06:01:56;15.40;;;13.90;;
815;SDS011;25928;51.062;13.752;2022-10-16T06:04:22;16.73;;;15.03;;
815;SDS011;25928;51.062;13.752;2022-10-16T06:06:48;15.97;;;14.37;;
815;SDS011;25928;51.062;13.752;2022-10-16T06:09:13;15.53;;;14.10;;
815;SDS011;25928;51.062;13.752;2022-10-16T06:11:39;14.43;;;13.13;;
815;SDS011;25928;51.062;13.752;2022-10-16T06:14:04;15.53;;;14.03;;
815;SDS011;25928;51.062;13.752;2022-10-16T06:16:32;15.97;;;14.00;;
815;SDS011;25928;51.062;13.752;2022-10-16T06:19:02;18.73;;;16.77;;
815;SDS011;25928;51.062;13.752;2022-10-16T06:21:31;16.10;;;14.60;;
815;SDS011;25928;51.062;13.752;2022-10-16T06:23:57;14.73;;;13.40;;
815;SDS011;25928;51.062;13.752;2022-10-16T06:26:24;16.10;;;13.70;;
815;SDS011;25928;51.062;13.752;2022-10-16T06:28:51;15.67;;;13.97;;
815;SDS011;25928;51.062;13.752;2022-10-16T06:31:19;15.97;;;14.30;;
815;SDS011;25928;51.062;13.752;2022-10-16T06:33:45;16.30;;;14.70;;
815;SDS011;25928;51.062;13.752;2022-10-16T06:36:13;16.17;;;14.57;;
815;SDS011;25928;51.062;13.752;2022-10-16T06:38:41;16.90;;;15.30;;
815;SDS011;25928;51.062;13.752;2022-10-16T06:41:09;16.50;;;14.90;;
815;SDS011;25928;51.062;13.752;2022-10-16T06:43:39;16.80;;;15.10;;
815;SDS011;25928;51.062;13.752;2022-10-16T06:46:05;16.73;;;15.00;;
815;SDS011;25928;51.062;13.752;2022-10-16T06:48:35;16.93;;;15.23;;
815;SDS011;25928;51.062;13.752;2022-10-16T06:51:14;16.60;;;14.90;;
815;SDS011;25928;51.062;13.752;2022-10-16T06:53:42;21.87;;;15.37;;
815;SDS011;25928;51.062;13.752;2022-10-16T06:56:10;17.33;;;15.67;;
815;SDS011;25928;51.062;13.752;2022-10-16T06:58:38;15.83;;;14.23;;
815;SDS011;25928;51.062;13.752;2022-10-16T07:01:04;16.57;;;15.00;;
815;SDS011;25928;51.062;13.752;2022-10-16T07:03:30;15.50;;;14.00;;
815;SDS011;25928;51.062;13.752;2022-10-16T07:05:56;17.77;;;16.07;;
815;SDS011;25928;51.062;13.752;2022-10-16T07:08:22;17.07;;;15.37;;
815;SDS011;25928;51.062;13.752;2022-10-16T07:10:47;15.90;;;14.43;;
815;SDS011;25928;51.062;13.752;2022-10-16T07:13:13;17.00;;;15.50;;
815;SDS011;25928;51.062;13.752;2022-10-16T07:15:39;15.50;;;14.00;;
815;SDS011;25928;51.062;13.752;2022-10-16T07:18:05;15.77;;;14.33;;
815;SDS011;25928;51.062;13.752;2022-10-16T07:20:31;18.17;;;16.30;;
815;SDS011;25928;51.062;13.752;2022-10-16T07:22:57;15.90;;;14.43;;
815;SDS011;25928;51.062;13.752;2022-10-16T07:25:22;15.53;;;14.10;;
815;SDS011;25928;51.062;13.752;2022-10-16T07:27:48;17.20;;;15.63;;
815;SDS011;25928;51.062;13.752;2022-10-16T07:30:14;16.40;;;14.80;;
815;SDS011;25928;51.062;13.752;2022-10-16T07:32:39;16.40;;;14.80;;
815;SDS011;25928;51.062;13.752;2022-10-16T07:35:05;15.70;;;14.20;;
815;SDS011;25928;51.062;13.752;2022-10-16T07:37:31;16.40;;;14.87;;
815;SDS011;25928;51.062;13.752;2022-10-16T07:39:56;20.83;;;14.97;;
815;SDS011;25928;51.062;13.752;2022-10-16T07:42:22;16.57;;;14.87;;
815;SDS011;25928;51.062;13.752;2022-10-16T07:44:47;17.27;;;15.50;;
815;SDS011;25928;51.062;13.752;2022-10-16T07:47:13;17.33;;;15.73;;
815;SDS011;25928;51.062;13.752;2022-10-16T07:49:39;16.53;;;14.93;;
815;SDS011;25928;51.062;13.752;2022-10-16T07:52:04;16.80;;;15.30;;
815;SDS011;25928;51.062;13.752;2022-10-16T07:54:30;15.73;;;14.13;;
815;SDS011;25928;51.062;13.752;2022-10-16T07:56:55;17.27;;;15.47;;
815;SDS011;25928;51.062;13.752;2022-10-16T07:59:21;17.30;;;15.70;;
815;SDS011;25928;51.062;13.752;2022-10-16T08:01:46;15.60;;;14.20;;
815;SDS011;25928;51.062;13.752;2022-10-16T08:04:14;16.93;;;15.30;;
815;SDS011;25928;51.062;13.752;2022-10-16T08:06:40;16.87;;;15.10;;
815;SDS011;25928;51.062;13.752;2022-10-16T08:09:06;15.43;;;13.90;;
815;SDS011;25928;51.062;13.752;2022-10-16T08:11:32;16.00;;;14.60;;
815;SDS011;25928;51.062;13.752;2022-10-16T08:13:58;14.73;;;13.33;;
815;SDS011;25928;51.062;13.752;2022-10-16T08:16:24;16.33;;;14.77;;
815;SDS011;25928;51.062;13.752;2022-10-16T08:18:49;14.57;;;13.17;;
815;SDS011;25928;51.062;13.752;2022-10-16T08:21:17;15.80;;;14.30;;
815;SDS011;25928;51.062;13.752;2022-10-16T08:23:45;14.13;;;12.87;;
815;SDS011;25928;51.062;13.752;2022-10-16T08:26:11;13.80;;;12.50;;
815;SDS011;25928;51.062;13.752;2022-10-16T08:28:37;14.33;;;12.90;;
815;SDS011;25928;51.062;13.752;2022-10-16T08:31:11;12.97;;;11.87;;
815;SDS011;25928;51.062;13.752;2022-10-16T08:33:38;13.30;;;12.20;;
815;SDS011;25928;51.062;13.752;2022-10-16T08:36:05;13.47;;;12.30;;
815;SDS011;25928;51.062;13.752;2022-10-16T08:38:31;13.50;;;12.30;;
815;SDS011;25928;51.062;13.752;2022-10-16T08:41:01;11.93;;;10.83;;
815;SDS011;25928;51.062;13.752;2022-10-16T08:43:35;11.70;;;10.70;;
815;SDS011;25928;51.062;13.752;2022-10-16T08:46:22;12.13;;;11.03;;
815;SDS011;25928;51.062;13.752;2022-10-16T08:48:50;12.17;;;11.17;;
815;SDS011;25928;51.062;13.752;2022-10-16T08:51:28;11.30;;;10.37;;
815;SDS011;25928;51.062;13.752;2022-10-16T08:53:57;10.37;;;9.37;;
815;SDS011;25928;51.062;13.752;2022-10-16T08:56:26;11.47;;;10.27;;
815;SDS011;25928;51.062;13.752;2022-10-16T08:58:52;10.07;;;9.17;;
815;SDS011;25928;51.062;13.752;2022-10-16T09:01:20;9.97;;;9.07;;
815;SDS011;25928;51.062;13.752;2022-10-16T09:06:18;10.53;;;9.53;;
815;SDS011;25928;51.062;13.752;2022-10-16T09:12:09;9.50;;;8.70;;
815;SDS011;25928;51.062;13.752;2022-10-16T09:20:34;9.50;;;8.80;;
815;SDS011;25928;51.062;13.752;2022-10-16T09:25:30;9.23;;;8.53;;
815;SDS011;25928;51.062;13.752;2022-10-16T09:27:57;9.70;;;8.90;;
815;SDS011;25928;51.062;13.752;2022-10-16T09:30:25;9.60;;;8.80;;
815;SDS011;25928;51.062;13.752;2022-10-16T09:32:53;8.53;;;7.93;;
815;SDS011;25928;51.062;13.752;2022-10-16T09:35:20;9.93;;;8.97;;
815;SDS011;25928;51.062;13.752;2022-10-16T09:37:50;9.83;;;9.03;;
815;SDS011;25928;51.062;13.752;2022-10-16T09:40:28;9.90;;;9.10;;
815;SDS011;25928;51.062;13.752;2022-10-16T09:43:20;9.87;;;9.07;;
815;SDS011;25928;51.062;13.752;2022-10-16T09:45:57;8.50;;;7.77;;
815;SDS011;25928;51.062;13.752;2022-10-16T09:48:31;7.83;;;7.23;;
815;SDS011;25928;51.062;13.752;2022-10-16T09:51:03;7.30;;;6.70;;
815;SDS011;25928;51.062;13.752;2022-10-16T09:53:46;6.80;;;6.23;;
815;SDS011;25928;51.062;13.752;2022-10-16T09:56:20;6.40;;;5.80;;
815;SDS011;25928;51.062;13.752;2022-10-16T09:58:54;6.30;;;5.80;;
815;SDS011;25928;51.062;13.752;2022-10-16T10:01:30;6.33;;;5.83;;
815;SDS011;25928;51.062;13.752;2022-10-16T10:04:02;5.50;;;5.10;;
815;SDS011;25928;51.062;13.752;2022-10-16T10:06:29;5.47;;;4.93;;
815;SDS011;25928;51.062;13.752;2022-10-16T10:08:59;5.97;;;5.57;;
815;SDS011;25928;51.062;13.752;2022-10-16T10:17:02;4.53;;;4.23;;
815;SDS011;25928;51.062;13.752;2022-10-16T10:19:52;5.27;;;4.77;;
815;SDS011;25928;51.062;13.752;2022-10-16T10:22:27;5.20;;;4.80;;
815;SDS011;25928;51.062;13.752;2022-10-16T10:33:09;3.90;;;3.50;;
815;SDS011;25928;51.062;13.752;2022-10-16T10:35:44;4.40;;;4.00;;
815;SDS011;25928;51.062;13.752;2022-10-16T10:46:51;1.53;;;0.83;;
815;SDS011;25928;51.062;13.752;2022-10-16T10:55:08;1.93;;;0.70;;
815;SDS011;25928;51.062;13.752;2022-10-16T10:58:06;1.10;;;0.80;;
815;SDS011;25928;51.062;13.752;2022-10-16T11:06:29;1.87;;;0.80;;
815;SDS011;25928;51.062;13.752;2022-10-16T11:09:24;1.33;;;0.83;;
815;SDS011;25928;51.062;13.752;2022-10-16T11:11:58;0.80;;;0.70;;
815;SDS011;25928;51.062;13.752;2022-10-16T11:17:26;0.90;;;0.80;;
815;SDS011;25928;51.062;13.752;2022-10-16T11:22:47;1.30;;;0.70;;
815;SDS011;25928;51.062;13.752;2022-10-16T11:25:30;1.67;;;1.03;;
815;SDS011;25928;51.062;13.752;2022-10-16T11:27:58;0.70;;;0.53;;
815;SDS011;25928;51.062;13.752;2022-10-16T11:30:49;1.07;;;0.83;;
815;SDS011;25928;51.062;13.752;2022-10-16T11:33:39;0.70;;;0.70;;
815;SDS011;25928;51.062;13.752;2022-10-16T11:39:02;0.83;;;0.73;;
815;SDS011;25928;51.062;13.752;2022-10-16T11:41:32;1.33;;;0.63;;
815;SDS011;25928;51.062;13.752;2022-10-16T11:46:57;1.10;;;1.00;;
815;SDS011;25928;51.062;13.752;2022-10-16T11:49:37;1.27;;;0.67;;
815;SDS011;25928;51.062;13.752;2022-10-16T11:52:13;2.20;;;1.00;;
815;SDS011;25928;51.062;13.752;2022-10-16T11:57:26;1.37;;;0.77;;
815;SDS011;25928;51.062;13.752;2022-10-16T11:59:58;2.00;;;0.60;;
815;SDS011;25928;51.062;13.752;2022-10-16T12:02:32;0.90;;;0.80;;
815;SDS011;25928;51.062;13.752;2022-10-16T12:05:14;1.80;;;0.80;;
815;SDS011;25928;51.062;13.752;2022-10-16T12:08:08;0.90;;;0.70;;
815;SDS011;25928;51.062;13.752;2022-10-16T12:10:36;0.97;;;0.70;;
815;SDS011;25928;51.062;13.752;2022-10-16T12:13:25;1.53;;;0.70;;
815;SDS011;25928;51.062;13.752;2022-10-16T12:16:03;1.20;;;0.80;;
815;SDS011;25928;51.062;13.752;2022-10-16T12:18:49;2.70;;;0.73;;
815;SDS011;25928;51.062;13.752;2022-10-16T12:21:29;0.70;;;0.70;;
815;SDS011;25928;51.062;13.752;2022-10-16T12:24:02;1.77;;;0.70;;
815;SDS011;25928;51.062;13.752;2022-10-16T12:26:31;1.93;;;0.60;;
815;SDS011;25928;51.062;13.752;2022-10-16T12:32:01;1.43;;;0.87;;
815;SDS011;25928;51.062;13.752;2022-10-16T12:34:39;1.03;;;0.80;;
815;SDS011;25928;51.062;13.752;2022-10-16T12:37:09;1.10;;;0.87;;
815;SDS011;25928;51.062;13.752;2022-10-16T12:39:43;0.90;;;0.77;;
815;SDS011;25928;51.062;13.752;2022-10-16T12:42:23;2.10;;;1.10;;
815;SDS011;25928;51.062;13.752;2022-10-16T12:44:52;0.80;;;0.70;;
815;SDS011;25928;51.062;13.752;2022-10-16T12:47:22;1.00;;;0.90;;
815;SDS011;25928;51.062;13.752;2022-10-16T12:50:00;1.77;;;1.10;;
815;SDS011;25928;51.062;13.752;2022-10-16T12:52:43;1.93;;;1.00;;
815;SDS011;25928;51.062;13.752;2022-10-16T12:55:15;0.80;;;0.70;;
815;SDS011;25928;51.062;13.752;2022-10-16T12:57:47;0.80;;;0.80;;
815;SDS011;25928;51.062;13.752;2022-10-16T13:07:12;1.00;;;0.80;;
815;SDS011;25928;51.062;13.752;2022-10-16T13:12:29;1.67;;;0.70;;
815;SDS011;25928;51.062;13.752;2022-10-16T13:15:24;1.00;;;0.67;;
815;SDS011;25928;51.062;13.752;2022-10-16T13:18:19;1.17;;;0.80;;
815;SDS011;25928;51.062;13.752;2022-10-16T13:26:38;1.00;;;0.90;;
815;SDS011;25928;51.062;13.752;2022-10-16T13:29:30;1.10;;;0.80;;
815;SDS011;25928;51.062;13.752;2022-10-16T13:31:57;1.10;;;1.00;;
815;SDS011;25928;51.062;13.752;2022-10-16T13:34:23;1.53;;;0.90;;
815;SDS011;25928;51.062;13.752;2022-10-16T13:36:51;1.60;;;0.90;;
815;SDS011;25928;51.062;13.752;2022-10-16T13:39:27;1.00;;;0.80;;
815;SDS011;25928;51.062;13.752;2022-10-16T13:41:58;1.37;;;1.27;;
815;SDS011;25928;51.062;13.752;2022-10-16T13:44:42;2.13;;;1.10;;
815;SDS011;25928;51.062;13.752;2022-10-16T13:47:15;1.27;;;1.10;;
815;SDS011;25928;51.062;13.752;2022-10-16T13:50:02;1.87;;;1.17;;
815;SDS011;25928;51.062;13.752;2022-10-16T13:52:30;2.07;;;1.10;;
815;SDS011;25928;51.062;13.752;2022-10-16T13:54:56;1.47;;;1.33;;
815;SDS011;25928;51.062;13.752;2022-10-16T13:57:23;1.37;;;1.27;;
815;SDS011;25928;51.062;13.752;2022-10-16T13:59:49;1.37;;;1.10;;
815;SDS011;25928;51.062;13.752;2022-10-16T14:04:51;1.40;;;1.30;;
815;SDS011;25928;51.062;13.752;2022-10-16T14:07:27;1.50;;;1.40;;
815;SDS011;25928;51.062;13.752;2022-10-16T14:09:55;1.50;;;1.20;;
815;SDS011;25928;51.062;13.752;2022-10-16T14:12:22;1.60;;;1.10;;
815;SDS011;25928;51.062;13.752;2022-10-16T14:14:49;1.20;;;1.10;;
815;SDS011;25928;51.062;13.752;2022-10-16T14:17:22;1.60;;;1.50;;
815;SDS011;25928;51.062;13.752;2022-10-16T14:19:51;1.70;;;1.30;;
815;SDS011;25928;51.062;13.752;2022-10-16T14:22:33;2.23;;;1.60;;
815;SDS011;25928;51.062;13.752;2022-10-16T14:25:24;2.70;;;2.07;;
815;SDS011;25928;51.062;13.752;2022-10-16T14:30:48;2.00;;;1.20;;
815;SDS011;25928;51.062;13.752;2022-10-16T14:33:24;1.70;;;1.30;;
815;SDS011;25928;51.062;13.752;2022-10-16T14:36:15;1.50;;;1.40;;
815;SDS011;25928;51.062;13.752;2022-10-16T14:38:56;1.60;;;1.50;;
815;SDS011;25928;51.062;13.752;2022-10-16T14:41:26;2.60;;;1.43;;
815;SDS011;25928;51.062;13.752;2022-10-16T14:43:55;1.53;;;1.00;;
815;SDS011;25928;51.062;13.752;2022-10-16T14:46:30;1.50;;;1.40;;
815;SDS011;25928;51.062;13.752;2022-10-16T14:49:00;3.57;;;1.60;;
815;SDS011;25928;51.062;13.752;2022-10-16T14:51:47;2.60;;;1.23;;
815;SDS011;25928;51.062;13.752;2022-10-16T14:54:13;1.50;;;1.30;;
815;SDS011;25928;51.062;13.752;2022-10-16T14:59:19;1.90;;;1.20;;
815;SDS011;25928;51.062;13.752;2022-10-16T15:01:58;3.40;;;1.40;;
815;SDS011;25928;51.062;13.752;2022-10-16T15:04:24;2.33;;;2.13;;
815;SDS011;25928;51.062;13.752;2022-10-16T15:06:50;2.40;;;1.60;;
815;SDS011;25928;51.062;13.752;2022-10-16T15:09:15;1.37;;;1.27;;
815;SDS011;25928;51.062;13.752;2022-10-16T15:11:41;4.67;;;1.70;;
815;SDS011;25928;51.062;13.752;2022-10-16T15:14:10;2.53;;;1.80;;
815;SDS011;25928;51.062;13.752;2022-10-16T15:16:37;2.63;;;2.43;;
815;SDS011;25928;51.062;13.752;2022-10-16T15:19:03;2.73;;;2.17;;
815;SDS011;25928;51.062;13.752;2022-10-16T15:21:30;3.00;;;2.47;;
815;SDS011;25928;51.062;13.752;2022-10-16T15:23:57;5.77;;;3.10;;
815;SDS011;25928;51.062;13.752;2022-10-16T15:26:25;1.77;;;1.67;;
815;SDS011;25928;51.062;13.752;2022-10-16T15:28:51;7.70;;;3.60;;
815;SDS011;25928;51.062;13.752;2022-10-16T15:31:17;3.70;;;2.17;;
815;SDS011;25928;51.062;13.752;2022-10-16T15:33:43;2.60;;;2.20;;
815;SDS011;25928;51.062;13.752;2022-10-16T15:36:12;2.60;;;2.03;;
815;SDS011;25928;51.062;13.752;2022-10-16T15:38:38;3.70;;;2.30;;
815;SDS011;25928;51.062;13.752;2022-10-16T15:41:03;3.30;;;2.00;;
815;SDS011;25928;51.062;13.752;2022-10-16T15:43:29;1.97;;;1.77;;
815;SDS011;25928;51.062;13.752;2022-10-16T15:46:02;2.40;;;2.03;;
815;SDS011;25928;51.062;13.752;2022-10-16T15:48:31;3.20;;;1.90;;
815;SDS011;25928;51.062;13.752;2022-10-16T15:50:57;3.83;;;2.33;;
815;SDS011;25928;51.062;13.752;2022-10-16T15:53:24;4.90;;;3.40;;
815;SDS011;25928;51.062;13.752;2022-10-16T15:55:50;2.70;;;1.93;;
815;SDS011;25928;51.062;13.752;2022-10-16T15:58:16;5.50;;;2.10;;
815;SDS011;25928;51.062;13.752;2022-10-16T16:00:41;3.70;;;2.37;;
815;SDS011;25928;51.062;13.752;2022-10-16T16:03:07;2.93;;;2.30;;
815;SDS011;25928;51.062;13.752;2022-10-16T16:05:36;2.93;;;1.80;;
815;SDS011;25928;51.062;13.752;2022-10-16T16:08:03;11.40;;;7.67;;
815;SDS011;25928;51.062;13.752;2022-10-16T16:10:29;15.20;;;11.73;;
815;SDS011;25928;51.062;13.752;2022-10-16T16:12:54;4.00;;;3.47;;
815;SDS011;25928;51.062;13.752;2022-10-16T16:15:20;5.60;;;2.97;;
815;SDS011;25928;51.062;13.752;2022-10-16T16:17:46;2.80;;;2.23;;
815;SDS011;25928;51.062;13.752;2022-10-16T16:20:12;3.53;;;2.53;;
815;SDS011;25928;51.062;13.752;2022-10-16T16:22:38;5.67;;;3.03;;
815;SDS011;25928;51.062;13.752;2022-10-16T16:25:04;4.93;;;2.90;;
815;SDS011;25928;51.062;13.752;2022-10-16T16:27:30;6.43;;;2.60;;
815;SDS011;25928;51.062;13.752;2022-10-16T16:29:58;5.70;;;2.67;;
815;SDS011;25928;51.062;13.752;2022-10-16T16:32:24;3.30;;;2.27;;
815;SDS011;25928;51.062;13.752;2022-10-16T16:34:50;4.10;;;2.43;;
815;SDS011;25928;51.062;13.752;2022-10-16T16:37:15;3.50;;;3.00;;
815;SDS011;25928;51.062;13.752;2022-10-16T16:39:41;5.23;;;2.50;;